Time;durP1;ratioP1;P1;durP2;ratioP2;P2;SDS_P1;SDS_P2;PMS_P1;PMS_P2;Temp;Humidity;BMP_temperature;BMP_pressure;BME280_temperature;BME280_humidity;BME280_pressure;Samples;Min_cycle;Max_cycle;Signal;HPM_P1;HPM_P2
2022/07/19 00:04:04;;;;;;;12.23;6.72;;;15.80;99.90;;;;;;10130224;29;20052;-84
2022/07/19 00:09:05;;;;;;;10.82;6.45;;;15.90;99.90;;;;;;10129746;29;20048;-84
2022/07/19 00:14:05;;;;;;;12.63;7.35;;;15.80;99.90;;;;;;10129695;29;20876;-83
2022/07/19 00:19:06;;;;;;;16.60;8.50;;;15.80;99.90;;;;;;10119333;29;20397;-89
2022/07/19 00:24:07;;;;;;;16.25;7.88;;;15.90;99.90;;;;;;10129423;29;20097;-86
2022/07/19 00:29:08;;;;;;;16.63;8.60;;;15.80;99.90;;;;;;10129323;29;20446;-87
2022/07/19 00:34:08;;;;;;;19.50;10.07;;;15.80;99.90;;;;;;10111841;29;20516;-85
2022/07/19 00:39:09;;;;;;;20.05;10.07;;;15.80;99.90;;;;;;10129032;29;20136;-83
2022/07/19 00:44:10;;;;;;;21.50;11.38;;;15.80;99.90;;;;;;10128620;29;20041;-88
2022/07/19 00:49:11;;;;;;;21.67;12.18;;;15.70;99.90;;;;;;10127363;29;20095;-83
2022/07/19 00:54:12;;;;;;;23.88;12.68;;;15.70;99.90;;;;;;10128770;29;20132;-84
2022/07/19 00:59:13;;;;;;;22.35;13.02;;;15.80;99.90;;;;;;10125993;29;20049;-86
2022/07/19 01:04:16;;;;;;;28.00;13.55;;;15.80;99.90;;;;;;10126984;29;20048;-82
2022/07/19 01:09:16;;;;;;;20.67;12.93;;;15.80;99.90;;;;;;10127892;29;20056;-84
2022/07/19 01:14:17;;;;;;;24.23;12.43;;;15.80;99.90;;;;;;10127203;29;20131;-88
2022/07/19 01:19:17;;;;;;;21.90;12.25;;;15.70;99.90;;;;;;10127244;29;20049;-86
2022/07/19 01:24:18;;;;;;;18.27;10.93;;;15.70;99.90;;;;;;10126737;29;20092;-86
2022/07/19 01:29:19;;;;;;;18.83;10.50;;;15.60;99.90;;;;;;10126500;29;20045;-84
2022/07/19 01:34:19;;;;;;;22.95;10.88;;;15.60;99.90;;;;;;10126865;29;20049;-84
2022/07/19 01:39:20;;;;;;;20.77;11.38;;;15.70;99.90;;;;;;10127061;29;20068;-83
2022/07/19 01:44:20;;;;;;;22.30;12.63;;;15.80;99.90;;;;;;10125747;29;20441;-83
2022/07/19 01:49:21;;;;;;;23.52;13.65;;;15.70;99.90;;;;;;10125603;29;20606;-83
2022/07/19 01:54:21;;;;;;;21.90;13.90;;;15.60;99.90;;;;;;10126650;29;20494;-87
2022/07/19 01:59:22;;;;;;;25.23;13.63;;;15.60;99.90;;;;;;10125573;29;20048;-83
2022/07/19 02:04:22;;;;;;;22.00;12.50;;;15.60;99.90;;;;;;10124999;29;20104;-84
2022/07/19 02:09:23;;;;;;;20.05;12.27;;;15.60;99.90;;;;;;10125623;29;20131;-86
2022/07/19 02:14:24;;;;;;;18.13;11.15;;;15.50;99.90;;;;;;10125683;29;20519;-85
2022/07/19 02:19:24;;;;;;;20.65;11.35;;;15.40;99.90;;;;;;10108365;29;20056;-84
2022/07/19 02:24:25;;;;;;;22.33;13.25;;;15.50;99.90;;;;;;10125555;29;20492;-83
2022/07/19 02:29:26;;;;;;;20.13;11.15;;;15.40;99.90;;;;;;10125549;29;20092;-84
2022/07/19 02:34:26;;;;;;;19.20;10.90;;;15.40;99.90;;;;;;10107348;29;20524;-85
2022/07/19 02:39:27;;;;;;;17.00;10.02;;;15.40;99.90;;;;;;10107143;29;20044;-83
2022/07/19 02:44:28;;;;;;;19.27;10.05;;;15.30;99.90;;;;;;10124674;29;20044;-84
2022/07/19 02:49:28;;;;;;;15.65;9.25;;;15.30;99.90;;;;;;10123793;29;20409;-83
2022/07/19 02:54:29;;;;;;;16.30;9.75;;;15.30;99.90;;;;;;10122660;29;20055;-83
2022/07/19 02:59:30;;;;;;;17.58;9.85;;;15.30;99.90;;;;;;10124727;29;20047;-84
2022/07/19 03:04:30;;;;;;;18.45;9.23;;;15.30;99.90;;;;;;10106690;29;20039;-83
2022/07/19 03:09:31;;;;;;;18.20;9.80;;;15.20;99.90;;;;;;10108121;29;20035;-81
2022/07/19 03:14:31;;;;;;;18.40;10.05;;;15.20;99.90;;;;;;10155568;23;20056;-83
2022/07/19 03:19:32;;;;;;;25.00;12.13;;;15.20;99.90;;;;;;10161319;29;20131;-83
2022/07/19 03:24:32;;;;;;;20.30;11.18;;;15.10;99.90;;;;;;10162029;29;20791;-89
2022/07/19 03:29:33;;;;;;;19.70;10.48;;;14.90;99.90;;;;;;10146011;29;20046;-86
2022/07/19 03:34:34;;;;;;;20.42;11.07;;;14.90;99.90;;;;;;10162703;29;20051;-91
2022/07/19 03:39:34;;;;;;;21.17;11.15;;;14.80;99.90;;;;;;10164269;29;20072;-86
2022/07/19 03:44:35;;;;;;;19.73;11.57;;;14.90;99.90;;;;;;10162351;29;20489;-85
2022/07/19 03:49:35;;;;;;;20.17;11.68;;;14.90;99.90;;;;;;10162544;29;20050;-85
2022/07/19 03:54:36;;;;;;;18.67;10.73;;;15.00;99.90;;;;;;10167363;29;20056;-85
2022/07/19 03:59:36;;;;;;;19.38;10.40;;;15.20;99.90;;;;;;10172916;29;20048;-86
2022/07/19 04:04:37;;;;;;;24.42;11.10;;;15.30;99.90;;;;;;10172305;29;20036;-88
2022/07/19 04:09:37;;;;;;;21.02;11.20;;;15.50;99.90;;;;;;10181979;29;20051;-88
2022/07/19 04:14:38;;;;;;;22.92;12.38;;;15.60;99.90;;;;;;10162860;29;20052;-84
2022/07/19 04:19:38;;;;;;;24.15;13.07;;;15.70;99.90;;;;;;10150814;29;20055;-84
2022/07/19 04:24:39;;;;;;;25.52;12.88;;;15.80;99.90;;;;;;10164573;29;20499;-88
2022/07/19 04:29:39;;;;;;;30.05;15.60;;;16.10;99.90;;;;;;10167316;23;20071;-85
2022/07/19 04:34:40;;;;;;;27.10;13.68;;;16.30;99.90;;;;;;10155460;29;20060;-85
2022/07/19 04:39:41;;;;;;;22.85;13.38;;;16.40;99.90;;;;;;10169699;29;20036;-85
2022/07/19 04:44:41;;;;;;;24.65;12.52;;;16.50;99.90;;;;;;10156238;29;20040;-85
2022/07/19 04:49:42;;;;;;;21.67;12.48;;;16.60;99.90;;;;;;10165146;29;20029;-87
2022/07/19 04:54:42;;;;;;;21.00;12.32;;;16.70;99.90;;;;;;10167869;29;20058;-84
2022/07/19 04:59:43;;;;;;;23.92;12.00;;;16.70;99.90;;;;;;10151435;29;20040;-83
2022/07/19 05:04:44;;;;;;;22.38;11.88;;;16.70;99.90;;;;;;10150882;29;20051;-85
2022/07/19 05:09:44;;;;;;;21.77;11.20;;;16.70;99.90;;;;;;10150876;29;20044;-85
2022/07/19 05:14:45;;;;;;;20.30;11.95;;;16.80;99.90;;;;;;10180830;29;20044;-85
2022/07/19 05:19:45;;;;;;;18.50;10.40;;;17.00;99.90;;;;;;10189847;29;20052;-88
2022/07/19 05:24:46;;;;;;;19.33;11.50;;;17.00;99.90;;;;;;10195556;29;20044;-85
2022/07/19 05:29:47;;;;;;;19.77;11.80;;;17.20;99.90;;;;;;10199487;29;20060;-87
2022/07/19 05:34:47;;;;;;;24.02;12.23;;;17.50;99.90;;;;;;10201291;29;20072;-86
2022/07/19 05:39:48;;;;;;;21.02;11.05;;;17.80;99.90;;;;;;10175387;29;20048;-87
2022/07/19 05:44:48;;;;;;;22.30;11.68;;;18.20;99.90;;;;;;10174823;29;20512;-85
2022/07/19 05:49:49;;;;;;;19.85;10.23;;;18.50;99.90;;;;;;10184665;29;20044;-85
2022/07/19 05:54:50;;;;;;;21.80;11.70;;;18.70;99.90;;;;;;10175099;29;20127;-87
2022/07/19 05:59:50;;;;;;;17.23;9.73;;;18.80;99.90;;;;;;10196308;29;20068;-86
2022/07/19 06:04:51;;;;;;;14.75;8.65;;;19.00;99.90;;;;;;10201512;29;20042;-85
2022/07/19 06:09:51;;;;;;;18.38;9.20;;;19.20;99.90;;;;;;10162363;29;20040;-88
2022/07/19 06:14:52;;;;;;;21.20;9.93;;;19.40;99.90;;;;;;10145608;29;20058;-85
2022/07/19 06:19:53;;;;;;;18.00;8.82;;;19.80;99.90;;;;;;10158294;29;20048;-85
2022/07/19 06:24:53;;;;;;;15.18;9.02;;;20.10;99.90;;;;;;10139512;29;20790;-85
2022/07/19 06:29:54;;;;;;;18.77;9.57;;;20.20;99.90;;;;;;10149814;29;20048;-85
2022/07/19 06:34:54;;;;;;;17.27;8.00;;;20.20;99.90;;;;;;10158874;29;20470;-85
2022/07/19 06:39:55;;;;;;;22.38;9.75;;;20.20;99.90;;;;;;10184804;29;20043;-85
2022/07/19 06:44:56;;;;;;;20.58;8.25;;;20.20;99.90;;;;;;10175155;29;20091;-85
2022/07/19 07:01:43;;;;;;;15.13;7.55;;;20.80;99.90;;;;;;10631587;23;20084;-84
2022/07/19 07:12:49;;;;;;;13.65;6.05;;;23.30;99.90;;;;;;10121231;29;20064;-84
2022/07/19 07:17:55;;;;;;;;;;;24.70;97.70;;;;;;10085604;29;20383;-84
2022/07/19 07:29:06;;;;;;;11.35;5.60;;;26.70;91.60;;;;;;10100602;29;20037;-84
2022/07/19 07:34:06;;;;;;;12.98;5.70;;;27.90;85.40;;;;;;10079463;29;20059;-87
2022/07/19 07:45:09;;;;;;;13.77;5.53;;;28.30;77.00;;;;;;10100893;29;20049;-85
2022/07/19 07:50:10;;;;;;;17.67;5.70;;;27.50;80.90;;;;;;10098992;29;20059;-86
2022/07/19 07:55:12;;;;;;;11.00;5.18;;;26.80;77.70;;;;;;10091365;29;20060;-85
2022/07/19 08:00:14;;;;;;;10.63;4.93;;;26.20;79.50;;;;;;10068641;29;20053;-84
2022/07/19 08:05:15;;;;;;;14.00;4.70;;;26.00;77.60;;;;;;10109276;29;20045;-84
2022/07/19 08:10:37;;;;;;;8.73;4.30;;;26.00;77.10;;;;;;10093254;29;20040;-84
2022/07/19 08:16:20;;;;;;;10.45;4.55;;;26.20;81.90;;;;;;10073040;29;20060;-84
2022/07/19 08:21:20;;;;;;;14.43;4.30;;;26.70;79.10;;;;;;10070361;29;20093;-83
2022/07/19 08:26:21;;;;;;;6.88;3.53;;;26.90;75.00;;;;;;10085010;29;20033;-87
2022/07/19 08:31:25;;;;;;;7.00;3.38;;;27.10;73.20;;;;;;10067654;29;20731;-84
2022/07/19 08:36:26;;;;;;;6.90;3.57;;;27.30;73.00;;;;;;10062766;29;20045;-86
2022/07/19 08:41:26;;;;;;;5.25;2.30;;;27.60;72.90;;;;;;10059614;29;20048;-84
2022/07/19 08:46:27;;;;;;;9.32;3.08;;;27.60;68.40;;;;;;10085904;29;20147;-85
2022/07/19 08:58:07;;;;;;;8.15;2.85;;;27.90;69.70;;;;;;11035396;23;20068;-86
2022/07/19 09:03:08;;;;;;;7.35;2.42;;;28.10;68.10;;;;;;10061715;29;20038;-85
2022/07/19 09:08:11;;;;;;;6.18;3.10;;;28.30;67.50;;;;;;10067554;29;20045;-87
2022/07/19 09:13:15;;;;;;;6.43;2.80;;;28.40;65.20;;;;;;10077355;29;20149;-83
2022/07/19 09:18:21;;;;;;;8.23;2.87;;;28.80;66.00;;;;;;10074615;29;20044;-86
2022/07/19 09:23:22;;;;;;;10.73;2.60;;;29.00;66.70;;;;;;10113955;29;20041;-84
2022/07/19 09:28:25;;;;;;;22.60;2.97;;;29.10;64.70;;;;;;10115733;29;20037;-84
2022/07/19 09:33:28;;;;;;;7.72;2.70;;;29.50;61.50;;;;;;10088024;29;20056;-85
2022/07/19 09:38:33;;;;;;;5.80;2.72;;;29.70;60.10;;;;;;10097864;29;20053;-85
2022/07/19 09:43:53;;;;;;;4.60;2.72;;;29.60;59.40;;;;;;10103814;29;20025;-85
2022/07/19 09:48:53;;;;;;;2.90;2.15;;;29.30;59.50;;;;;;10089265;29;20044;-85
2022/07/19 09:53:55;;;;;;;6.10;2.60;;;29.30;57.60;;;;;;10088841;29;20387;-85
2022/07/19 09:58:58;;;;;;;4.07;2.47;;;29.30;58.40;;;;;;10105870;29;20053;-84
2022/07/19 10:04:05;;;;;;;4.30;2.25;;;29.60;61.70;;;;;;10102196;29;20052;-86
2022/07/19 10:09:08;;;;;;;4.22;2.22;;;29.90;61.20;;;;;;10115020;29;20092;-84
2022/07/19 10:14:11;;;;;;;4.43;2.25;;;30.00;58.40;;;;;;10087869;29;20596;-83
2022/07/19 10:19:27;;;;;;;3.88;2.28;;;29.60;60.30;;;;;;10076135;29;20048;-84
2022/07/19 10:24:47;;;;;;;4.18;2.35;;;29.70;58.30;;;;;;10077220;29;20048;-86
2022/07/19 10:29:48;;;;;;;8.18;2.55;;;30.10;60.20;;;;;;10080416;29;20041;-83
2022/07/19 10:34:51;;;;;;;4.50;2.28;;;30.20;57.90;;;;;;10079311;29;20076;-85
2022/07/19 10:39:58;;;;;;;5.07;2.30;;;30.30;57.80;;;;;;10069189;29;20053;-85
2022/07/19 10:45:01;;;;;;;5.38;2.40;;;30.30;59.70;;;;;;10077684;29;20037;-86
2022/07/19 10:50:09;;;;;;;6.55;2.42;;;30.50;58.90;;;;;;10075042;29;20608;-86
2022/07/19 10:55:20;;;;;;;5.18;3.10;;;30.70;59.40;;;;;;10079942;29;20060;-86
2022/07/19 11:00:27;;;;;;;8.30;3.13;;;30.60;59.00;;;;;;10078083;29;20030;-86
2022/07/19 11:05:29;;;;;;;7.25;2.95;;;30.60;58.90;;;;;;10087753;29;20033;-85
2022/07/19 11:10:30;;;;;;;4.93;2.58;;;30.80;58.50;;;;;;10086774;29;20029;-83
2022/07/19 11:15:31;;;;;;;5.78;2.58;;;30.90;57.80;;;;;;10085145;29;20116;-84
2022/07/19 11:20:34;;;;;;;6.18;2.75;;;30.90;59.70;;;;;;10081997;29;20053;-87
2022/07/19 11:25:41;;;;;;;4.43;2.33;;;31.10;61.40;;;;;;10082913;29;20048;-88
2022/07/19 11:30:41;;;;;;;3.95;2.58;;;31.20;57.90;;;;;;10066981;29;20158;-85
2022/07/19 11:36:00;;;;;;;5.38;2.65;;;31.00;58.90;;;;;;10086784;29;20158;-85
2022/07/19 11:41:01;;;;;;;5.50;2.50;;;31.10;55.60;;;;;;10078032;29;20156;-86
2022/07/19 11:46:02;;;;;;;4.47;2.38;;;31.00;58.10;;;;;;10076831;29;20045;-89
2022/07/19 11:51:07;;;;;;;8.30;2.72;;;31.00;56.40;;;;;;10078600;29;20044;-86
2022/07/19 11:56:22;;;;;;;3.83;2.20;;;31.00;57.00;;;;;;10094484;29;20417;-87
2022/07/19 12:01:27;;;;;;;4.35;2.40;;;31.30;56.90;;;;;;10098153;29;20557;-85
2022/07/19 12:06:38;;;;;;;5.82;2.53;;;31.50;59.50;;;;;;10114950;29;20201;-86
2022/07/19 12:11:41;;;;;;;6.22;2.58;;;31.60;58.30;;;;;;10099677;29;20037;-86
2022/07/19 12:16:42;;;;;;;4.60;2.23;;;31.60;58.60;;;;;;10106306;29;20081;-85
2022/07/19 12:21:43;;;;;;;6.13;2.42;;;31.60;59.80;;;;;;10096530;29;20139;-86
2022/07/19 12:27:00;;;;;;;5.35;2.55;;;31.90;57.30;;;;;;10112057;29;20070;-86
2022/07/19 12:32:03;;;;;;;5.55;2.10;;;32.00;57.10;;;;;;10094423;29;20390;-85
2022/07/19 12:37:25;;;;;;;3.50;2.00;;;32.00;60.30;;;;;;10083003;29;20045;-88
2022/07/19 12:42:26;;;;;;;4.07;2.53;;;31.90;55.70;;;;;;10091186;29;20718;-84
2022/07/19 12:47:26;;;;;;;4.10;2.08;;;31.90;57.20;;;;;;10109032;29;20124;-85
2022/07/19 12:52:27;;;;;;;3.78;1.83;;;32.00;58.80;;;;;;10090711;29;20510;-86
2022/07/19 12:57:28;;;;;;;4.32;2.08;;;32.00;55.50;;;;;;10091571;29;20057;-86
2022/07/19 13:02:29;;;;;;;3.22;1.75;;;32.00;54.60;;;;;;10090748;29;20029;-86
2022/07/19 13:07:30;;;;;;;2.33;1.70;;;32.00;55.70;;;;;;10086670;29;20474;-86
2022/07/19 13:12:31;;;;;;;3.83;2.20;;;31.90;54.70;;;;;;10094413;29;20037;-86
2022/07/19 13:17:32;;;;;;;3.17;1.80;;;32.00;54.00;;;;;;10083364;29;20660;-85
2022/07/19 13:22:33;;;;;;;7.30;2.42;;;31.70;52.00;;;;;;10078709;29;20117;-86
2022/07/19 13:27:33;;;;;;;7.00;2.15;;;31.70;56.00;;;;;;10090384;29;20096;-90
2022/07/19 13:32:34;;;;;;;5.55;2.03;;;31.80;57.00;;;;;;10090775;29;20028;-87
2022/07/19 13:37:35;;;;;;;3.95;2.08;;;32.00;54.00;;;;;;10075731;29;20080;-87
2022/07/19 13:42:35;;;;;;;5.55;2.15;;;32.00;57.50;;;;;;10091988;29;20042;-90
2022/07/19 13:47:38;;;;;;;2.85;2.00;;;32.00;55.70;;;;;;10097105;29;20032;-88
2022/07/19 13:52:38;;;;;;;3.28;2.13;;;31.80;53.00;;;;;;10080146;29;20616;-88
2022/07/19 13:57:39;;;;;;;4.97;1.83;;;31.70;55.10;;;;;;10066724;29;20128;-89
2022/07/19 14:02:39;;;;;;;4.60;1.75;;;31.60;56.00;;;;;;10073187;29;20045;-84
2022/07/19 14:07:41;;;;;;;4.40;1.92;;;31.50;56.70;;;;;;10084768;29;20040;-85
2022/07/19 14:12:41;;;;;;;3.45;2.10;;;31.40;55.50;;;;;;10084574;29;20140;-86
2022/07/19 14:17:42;;;;;;;6.18;2.15;;;31.30;55.50;;;;;;10129737;23;20065;-87
2022/07/19 14:22:43;;;;;;;2.97;1.80;;;31.10;55.30;;;;;;10105228;29;20400;-85
2022/07/19 14:27:44;;;;;;;5.15;2.15;;;30.90;54.40;;;;;;10121460;29;20049;-84
2022/07/19 14:32:44;;;;;;;3.97;1.80;;;30.70;54.40;;;;;;10105836;29;20048;-86
2022/07/19 14:37:45;;;;;;;3.38;1.80;;;30.20;54.50;;;;;;10119521;29;20135;-85
2022/07/19 14:42:46;;;;;;;3.10;2.00;;;30.10;57.40;;;;;;10120413;29;20119;-86
2022/07/19 14:47:47;;;;;;;2.20;1.80;;;30.10;57.00;;;;;;10123144;29;20040;-86
2022/07/19 14:52:47;;;;;;;6.10;2.35;;;30.00;57.60;;;;;;10118581;29;20049;-85
2022/07/19 14:57:48;;;;;;;4.28;1.98;;;29.90;57.20;;;;;;10111941;29;20037;-85
2022/07/19 15:02:49;;;;;;;2.33;1.60;;;29.90;56.50;;;;;;10108363;29;20032;-86
2022/07/19 15:07:49;;;;;;;3.75;1.90;;;29.80;57.00;;;;;;10119573;29;20164;-85
2022/07/19 15:12:50;;;;;;;4.38;2.00;;;29.70;56.70;;;;;;10107342;29;20417;-86
2022/07/19 15:17:50;;;;;;;3.20;2.30;;;29.40;59.40;;;;;;10086843;29;20167;-83
2022/07/19 15:22:51;;;;;;;3.78;2.33;;;29.40;60.20;;;;;;10091258;29;20561;-84
2022/07/19 15:27:53;;;;;;;7.97;2.58;;;29.40;60.40;;;;;;10080392;29;20545;-85
2022/07/19 15:32:54;;;;;;;8.20;2.65;;;29.40;58.30;;;;;;10098735;29;20124;-84
2022/07/19 15:37:54;;;;;;;5.03;2.67;;;29.30;59.90;;;;;;10107385;29;20096;-84
2022/07/19 15:42:55;;;;;;;4.32;2.30;;;29.30;59.50;;;;;;10105448;29;20147;-84
2022/07/19 15:47:55;;;;;;;4.18;2.80;;;29.20;58.10;;;;;;10096965;29;20047;-83
2022/07/19 15:52:57;;;;;;;3.38;2.33;;;29.20;60.40;;;;;;10116756;29;20082;-84
2022/07/19 15:57:58;;;;;;;6.15;3.15;;;29.20;60.20;;;;;;10127713;29;20128;-84
2022/07/19 16:02:59;;;;;;;7.05;3.08;;;29.10;60.00;;;;;;10110977;29;20408;-85
2022/07/19 16:07:59;;;;;;;4.55;2.47;;;29.10;59.60;;;;;;10108578;29;20039;-83
2022/07/19 16:13:00;;;;;;;6.25;2.58;;;29.00;59.30;;;;;;10089146;29;20423;-85
2022/07/19 16:18:02;;;;;;;3.55;1.98;;;29.00;59.70;;;;;;10112193;29;20470;-85
2022/07/19 16:23:04;;;;;;;4.28;2.78;;;28.90;62.20;;;;;;10094020;29;20625;-85
2022/07/19 16:28:05;;;;;;;3.50;2.33;;;28.80;61.30;;;;;;10110870;29;20079;-85
2022/07/19 16:33:05;;;;;;;3.38;2.28;;;28.70;61.40;;;;;;10118509;29;20143;-86
2022/07/19 16:38:09;;;;;;;4.20;2.30;;;28.60;62.00;;;;;;10091839;29;20037;-84
2022/07/19 16:43:10;;;;;;;2.80;2.17;;;28.50;60.70;;;;;;10092843;29;20040;-84
2022/07/19 16:48:12;;;;;;;11.90;2.45;;;28.40;60.40;;;;;;10113865;29;20295;-84
2022/07/19 16:53:13;;;;;;;6.72;2.60;;;28.30;61.30;;;;;;10106261;29;20044;-87
2022/07/19 16:58:13;;;;;;;6.35;2.40;;;28.20;62.90;;;;;;10108712;29;20041;-84
2022/07/19 17:03:14;;;;;;;5.55;2.35;;;28.10;62.60;;;;;;10114118;29;20549;-84
2022/07/19 17:08:15;;;;;;;3.72;2.38;;;28.00;63.50;;;;;;10098698;29;20048;-83
2022/07/19 17:13:15;;;;;;;4.90;2.60;;;27.90;62.70;;;;;;10106385;29;20076;-86
2022/07/19 17:18:16;;;;;;;5.95;2.60;;;27.70;63.10;;;;;;10116178;29;20037;-86
2022/07/19 17:23:17;;;;;;;5.50;2.70;;;27.60;63.70;;;;;;10083675;29;20048;-82
2022/07/19 17:28:18;;;;;;;3.80;2.47;;;27.50;67.30;;;;;;10107478;29;20068;-84
2022/07/19 17:33:19;;;;;;;4.15;2.85;;;27.20;70.50;;;;;;10112646;29;20053;-82
2022/07/19 17:38:19;;;;;;;4.93;2.55;;;26.70;71.00;;;;;;10104215;29;20108;-85
2022/07/19 17:43:20;;;;;;;6.68;2.70;;;26.30;71.50;;;;;;10102222;29;20148;-83
2022/07/19 17:48:21;;;;;;;9.00;3.28;;;25.80;72.90;;;;;;10108565;29;20052;-85
2022/07/19 17:53:22;;;;;;;8.65;4.07;;;25.40;73.30;;;;;;10113835;29;20037;-84
2022/07/19 17:58:23;;;;;;;9.45;4.38;;;25.10;74.80;;;;;;10113525;29;20441;-85
2022/07/19 18:03:23;;;;;;;9.52;5.45;;;24.80;75.40;;;;;;10106913;29;20024;-86
2022/07/19 18:08:24;;;;;;;19.13;10.65;;;24.40;75.30;;;;;;10103565;29;20048;-86
2022/07/19 18:13:24;;;;;;;10.05;6.38;;;24.10;75.90;;;;;;10097471;29;20108;-85
2022/07/19 18:18:25;;;;;;;8.65;5.72;;;23.80;77.00;;;;;;10112806;29;20037;-83
2022/07/19 18:23:26;;;;;;;10.93;4.80;;;23.60;78.30;;;;;;10107784;29;20045;-85
2022/07/19 18:28:26;;;;;;;6.75;3.72;;;23.40;78.40;;;;;;10115488;29;20029;-85
2022/07/19 18:33:27;;;;;;;5.30;3.20;;;23.10;77.40;;;;;;10103604;29;20460;-82
2022/07/19 18:38:28;;;;;;;6.60;3.50;;;22.90;78.10;;;;;;10100860;29;20076;-86
2022/07/19 18:43:28;;;;;;;8.65;3.80;;;22.80;77.70;;;;;;10110352;29;20124;-83
2022/07/19 18:48:29;;;;;;;6.72;3.88;;;22.60;79.00;;;;;;10100894;29;20490;-83
2022/07/19 18:53:32;;;;;;;8.85;4.50;;;22.30;79.90;;;;;;10092819;29;20132;-83
2022/07/19 18:58:34;;;;;;;6.65;3.60;;;22.10;80.80;;;;;;10102815;29;20127;-83
2022/07/19 19:03:35;;;;;;;5.68;3.40;;;22.00;82.40;;;;;;10117611;29;20052;-83
2022/07/19 19:08:35;;;;;;;4.93;3.15;;;21.90;84.10;;;;;;10107810;29;20041;-86
2022/07/19 19:13:36;;;;;;;6.90;3.30;;;21.70;83.00;;;;;;10090449;29;20067;-83
2022/07/19 19:18:37;;;;;;;6.25;3.38;;;22.00;79.40;;;;;;10103433;29;20033;-85
2022/07/19 19:23:37;;;;;;;8.75;3.78;;;22.30;81.20;;;;;;10095616;29;20063;-84
2022/07/19 19:28:38;;;;;;;6.53;2.92;;;22.00;81.30;;;;;;10114742;29;20048;-82
2022/07/19 19:33:39;;;;;;;5.38;3.30;;;21.80;80.80;;;;;;10111577;29;20093;-81
2022/07/19 19:38:39;;;;;;;6.07;3.00;;;21.70;80.40;;;;;;10118766;29;20413;-81
2022/07/19 19:43:41;;;;;;;4.63;2.78;;;21.70;82.20;;;;;;10095159;29;20045;-83
2022/07/19 19:48:43;;;;;;;6.18;3.25;;;21.50;82.40;;;;;;10107701;29;20036;-82
2022/07/19 19:53:44;;;;;;;9.25;3.22;;;21.30;83.40;;;;;;10093556;29;20120;-81
2022/07/19 19:58:46;;;;;;;6.28;2.65;;;21.10;82.80;;;;;;10107278;29;20502;-81
2022/07/19 20:03:47;;;;;;;4.22;2.60;;;21.00;82.90;;;;;;10121129;29;20044;-83
2022/07/19 20:08:47;;;;;;;4.72;2.72;;;21.00;82.80;;;;;;10101744;29;20065;-81
2022/07/19 20:13:48;;;;;;;5.95;2.85;;;20.90;83.10;;;;;;10094001;29;20083;-84
2022/07/19 20:18:50;;;;;;;5.35;2.85;;;20.90;83.20;;;;;;10101824;29;20398;-82
2022/07/19 20:23:51;;;;;;;6.63;3.20;;;20.90;83.90;;;;;;10094478;29;20072;-83
2022/07/19 20:28:51;;;;;;;7.15;3.17;;;20.80;83.80;;;;;;10107514;29;20549;-83
2022/07/19 20:33:52;;;;;;;6.38;3.42;;;20.80;84.20;;;;;;10104213;29;20073;-83
2022/07/19 20:38:53;;;;;;;3.92;2.65;;;20.70;83.80;;;;;;10108374;29;20048;-82
2022/07/19 20:43:54;;;;;;;6.00;2.90;;;20.70;83.20;;;;;;10096625;29;20159;-82
2022/07/19 20:48:55;;;;;;;6.90;2.70;;;20.70;83.70;;;;;;10106926;29;20068;-83
2022/07/19 20:53:55;;;;;;;6.30;3.00;;;20.70;83.50;;;;;;10110281;29;20058;-83
2022/07/19 20:58:57;;;;;;;7.25;2.83;;;20.70;84.20;;;;;;10110577;29;20123;-81
2022/07/19 21:03:57;;;;;;;7.30;3.35;;;20.70;86.80;;;;;;10109717;29;20063;-82
2022/07/19 21:08:58;;;;;;;5.95;3.85;;;20.50;87.40;;;;;;10087259;29;20124;-82
2022/07/19 21:13:58;;;;;;;6.95;3.55;;;20.20;88.60;;;;;;10099827;29;20056;-81
2022/07/19 21:18:59;;;;;;;6.20;3.20;;;20.00;89.80;;;;;;10111064;29;20072;-82
2022/07/19 21:24:01;;;;;;;4.90;3.10;;;19.70;90.40;;;;;;10087794;29;20046;-82
2022/07/19 21:29:02;;;;;;;6.20;3.70;;;19.60;90.50;;;;;;10107032;29;20029;-84
2022/07/19 21:34:02;;;;;;;789.50;404.42;;;19.30;91.00;;;;;;10108098;29;20082;-83
2022/07/19 21:39:10;;;;;;;45.08;8.85;;;19.30;93.60;;;;;;10111602;29;20040;-81
2022/07/19 21:44:12;;;;;;;306.92;96.13;;;19.40;94.40;;;;;;10109078;29;20043;-83
2022/07/19 21:49:14;;;;;;;10.18;4.00;;;19.30;95.60;;;;;;10108760;29;20045;-82
2022/07/19 21:54:15;;;;;;;7.97;4.72;;;19.30;94.80;;;;;;10109353;29;20516;-83
2022/07/19 21:59:16;;;;;;;8.10;4.60;;;19.30;95.40;;;;;;10115597;29;20040;-84
2022/07/19 22:04:16;;;;;;;7.72;4.10;;;19.30;95.30;;;;;;10105733;29;20049;-82
2022/07/19 22:09:17;;;;;;;7.13;4.97;;;19.20;95.50;;;;;;10107988;29;20043;-83
2022/07/19 22:14:17;;;;;;;7.95;4.60;;;19.10;95.80;;;;;;10105317;29;20061;-83
2022/07/19 22:19:18;;;;;;;7.63;5.40;;;18.90;97.50;;;;;;10112561;29;20032;-82
2022/07/19 22:24:18;;;;;;;8.43;4.65;;;18.80;99.90;;;;;;10110710;29;20073;-82
2022/07/19 22:29:19;;;;;;;10.13;5.28;;;18.80;99.90;;;;;;10102412;29;20040;-83
2022/07/19 22:34:19;;;;;;;10.57;5.00;;;18.70;99.90;;;;;;10101130;29;20504;-83
2022/07/19 22:39:20;;;;;;;9.07;5.50;;;18.50;99.90;;;;;;10095087;29;20041;-82
2022/07/19 22:44:21;;;;;;;11.35;6.03;;;18.40;99.90;;;;;;10096773;29;20040;-82
2022/07/19 22:49:21;;;;;;;8.77;4.82;;;18.40;99.90;;;;;;10107764;29;20037;-82
2022/07/19 22:54:22;;;;;;;8.82;4.90;;;18.20;99.90;;;;;;10112666;29;20111;-83
2022/07/19 22:59:23;;;;;;;10.48;5.32;;;18.20;99.90;;;;;;10107259;29;20120;-82
2022/07/19 23:04:24;;;;;;;13.23;5.55;;;18.20;99.90;;;;;;10101115;29;20492;-82
2022/07/19 23:09:24;;;;;;;13.10;5.50;;;18.10;99.90;;;;;;10113333;29;20047;-82
2022/07/19 23:14:25;;;;;;;15.93;6.60;;;18.20;99.90;;;;;;10093105;29;20067;-84
2022/07/19 23:19:25;;;;;;;15.27;7.03;;;18.20;99.90;;;;;;10099113;29;20158;-84
2022/07/19 23:24:26;;;;;;;13.23;6.10;;;18.20;99.90;;;;;;10105313;29;20409;-83
2022/07/19 23:29:27;;;;;;;15.52;6.97;;;18.30;99.90;;;;;;10117637;29;20466;-84
2022/07/19 23:34:27;;;;;;;12.82;7.05;;;18.30;99.90;;;;;;10099407;29;20057;-84
2022/07/19 23:39:28;;;;;;;11.27;6.70;;;18.20;99.90;;;;;;10116341;29;20071;-83
2022/07/19 23:44:28;;;;;;;10.43;6.40;;;18.10;99.90;;;;;;10112079;29;20092;-82
2022/07/19 23:49:29;;;;;;;14.00;6.50;;;18.10;99.90;;;;;;10101573;29;20048;-83
2022/07/19 23:54:30;;;;;;;19.80;7.00;;;18.10;99.90;;;;;;10103438;29;20127;-83
2022/07/19 23:59:30;;;;;;;12.07;7.05;;;18.00;99.90;;;;;;10107534;29;20439;-83
